createdAt,value
2022-10-18T00:00:07.851Z,15.90
2022-10-18T00:02:38.142Z,15.90
2022-10-18T00:05:05.629Z,15.90
2022-10-18T00:07:32.924Z,15.90
2022-10-18T00:10:00.048Z,15.90
2022-10-18T00:12:26.990Z,15.90
2022-10-18T00:14:54.008Z,15.90
2022-10-18T00:17:21.013Z,15.80
2022-10-18T00:19:49.227Z,15.90
2022-10-18T00:22:16.308Z,15.80
2022-10-18T00:24:43.307Z,15.90
2022-10-18T00:27:10.272Z,15.80
2022-10-18T00:29:37.262Z,15.80
2022-10-18T00:32:04.459Z,15.90
2022-10-18T00:34:31.596Z,15.80
2022-10-18T00:36:58.510Z,15.80
2022-10-18T00:39:25.487Z,15.80
2022-10-18T00:41:52.752Z,15.80
2022-10-18T00:44:25.810Z,15.70
2022-10-18T00:46:57.205Z,15.80
2022-10-18T00:49:27.927Z,15.70
2022-10-18T00:52:13.019Z,15.70
2022-10-18T00:54:43.017Z,15.70
2022-10-18T00:57:11.745Z,15.60
2022-10-18T00:59:39.384Z,15.60
2022-10-18T01:02:07.473Z,15.60
2022-10-18T01:04:34.878Z,15.60
2022-10-18T01:07:13.480Z,15.50
2022-10-18T01:10:08.268Z,15.50
2022-10-18T01:12:50.327Z,15.50
2022-10-18T01:15:31.692Z,15.50
2022-10-18T01:18:17.206Z,15.40
2022-10-18T01:20:53.730Z,15.50
2022-10-18T01:23:59.233Z,15.40
2022-10-18T01:26:41.220Z,15.40
2022-10-18T01:29:20.660Z,15.40
2022-10-18T01:32:01.307Z,15.40
2022-10-18T01:34:33.944Z,15.40
2022-10-18T01:37:04.649Z,15.40
2022-10-18T01:39:36.464Z,15.40
2022-10-18T01:42:07.673Z,15.40
2022-10-18T01:44:36.153Z,15.50
2022-10-18T01:47:06.817Z,15.40
2022-10-18T01:49:34.476Z,15.40
2022-10-18T01:52:01.652Z,15.40
2022-10-18T01:54:34.225Z,15.50
2022-10-18T01:57:07.219Z,15.50
2022-10-18T01:59:52.507Z,15.50
2022-10-18T02:02:45.575Z,15.50
2022-10-18T02:05:15.233Z,15.50
2022-10-18T02:07:42.134Z,15.50
2022-10-18T02:12:49.381Z,15.50
2022-10-18T02:15:21.026Z,15.50
2022-10-18T02:17:48.004Z,15.50
2022-10-18T02:20:19.705Z,15.60
2022-10-18T02:22:49.032Z,15.60
2022-10-18T02:25:23.586Z,15.60
2022-10-18T02:27:55.068Z,15.60
2022-10-18T02:30:30.530Z,15.60
2022-10-18T02:33:19.800Z,15.60
2022-10-18T02:35:54.720Z,15.60
2022-10-18T02:38:25.034Z,15.60
2022-10-18T02:40:52.227Z,15.60
2022-10-18T02:43:19.138Z,15.60
2022-10-18T02:45:46.190Z,15.60
2022-10-18T02:48:13.093Z,15.60
2022-10-18T02:50:40.280Z,15.60
2022-10-18T02:53:07.280Z,15.60
2022-10-18T02:55:34.528Z,15.60
2022-10-18T02:58:01.477Z,15.60
2022-10-18T03:00:28.452Z,15.60
2022-10-18T03:02:55.435Z,15.60
2022-10-18T03:05:22.403Z,15.70
2022-10-18T03:07:49.335Z,15.60
2022-10-18T03:10:16.331Z,15.70
2022-10-18T03:12:43.238Z,15.70
2022-10-18T03:15:10.492Z,15.70
2022-10-18T03:17:37.402Z,15.70
2022-10-18T03:20:04.667Z,15.70
2022-10-18T03:22:31.589Z,15.70
2022-10-18T03:24:58.519Z,15.70
2022-10-18T03:27:25.492Z,15.70
2022-10-18T03:29:52.586Z,15.70
2022-10-18T03:32:19.601Z,15.70
2022-10-18T03:34:46.572Z,15.70
2022-10-18T03:37:13.637Z,15.70
2022-10-18T03:39:40.606Z,15.70
2022-10-18T03:42:07.496Z,15.60
2022-10-18T03:44:34.451Z,15.60
2022-10-18T03:47:01.348Z,15.70
2022-10-18T03:49:28.346Z,15.70
2022-10-18T03:51:55.278Z,15.60
2022-10-18T03:54:22.232Z,15.60
2022-10-18T03:56:49.116Z,15.70
2022-10-18T03:59:17.189Z,15.60
2022-10-18T04:01:44.173Z,15.70
2022-10-18T04:04:11.182Z,15.70
2022-10-18T04:06:38.125Z,15.60
2022-10-18T04:09:07.877Z,15.70
2022-10-18T04:11:37.151Z,15.60
2022-10-18T04:14:04.268Z,15.60
2022-10-18T04:16:31.243Z,15.60
2022-10-18T04:18:58.210Z,15.70
2022-10-18T04:21:25.227Z,15.60
2022-10-18T04:23:52.191Z,15.70
2022-10-18T04:26:19.347Z,15.70
2022-10-18T04:28:46.272Z,15.70
2022-10-18T04:31:13.314Z,15.70
2022-10-18T04:33:40.410Z,15.70
2022-10-18T04:36:07.692Z,15.70
2022-10-18T04:38:34.827Z,15.70
2022-10-18T04:41:01.817Z,15.70
2022-10-18T04:43:28.886Z,15.70
2022-10-18T04:45:55.928Z,15.70
2022-10-18T04:48:22.933Z,15.70
2022-10-18T04:50:51.157Z,15.70
2022-10-18T04:53:18.894Z,15.70
2022-10-18T04:55:49.453Z,15.70
2022-10-18T04:58:19.899Z,15.70
2022-10-18T05:00:47.839Z,15.70
2022-10-18T05:03:14.943Z,15.70
2022-10-18T05:06:00.910Z,15.70
2022-10-18T05:08:29.752Z,15.60
2022-10-18T05:10:56.835Z,15.60
2022-10-18T05:13:23.892Z,15.70
2022-10-18T05:15:50.822Z,15.70
2022-10-18T05:18:18.114Z,15.70
2022-10-18T05:20:45.028Z,15.70
2022-10-18T05:23:12.054Z,15.70
2022-10-18T05:25:40.291Z,15.70
2022-10-18T05:28:10.950Z,15.60
2022-10-18T05:30:43.060Z,15.70
2022-10-18T05:33:10.256Z,15.70
2022-10-18T05:35:37.323Z,15.60
2022-10-18T05:38:07.510Z,15.70
2022-10-18T05:40:34.680Z,15.70
2022-10-18T05:43:01.558Z,15.70
2022-10-18T05:45:28.699Z,15.70
2022-10-18T05:47:55.607Z,15.70
2022-10-18T05:50:22.618Z,15.70
2022-10-18T05:52:49.559Z,15.70
2022-10-18T05:55:16.572Z,15.70
2022-10-18T05:57:43.447Z,15.70
2022-10-18T06:00:11.316Z,15.70
2022-10-18T06:02:42.102Z,15.70
2022-10-18T06:05:09.274Z,15.70
2022-10-18T06:07:36.407Z,15.70
2022-10-18T06:10:03.528Z,15.70
2022-10-18T06:12:30.466Z,15.70
2022-10-18T06:14:57.418Z,15.70
2022-10-18T06:17:25.915Z,15.70
2022-10-18T06:19:54.740Z,15.70
2022-10-18T06:22:21.679Z,15.70
2022-10-18T06:24:48.673Z,15.70
2022-10-18T06:27:15.643Z,15.70
2022-10-18T06:29:42.920Z,15.70
2022-10-18T06:32:09.875Z,15.70
2022-10-18T06:34:36.869Z,15.70
2022-10-18T06:37:03.783Z,15.70
2022-10-18T06:39:30.733Z,15.70
2022-10-18T06:41:57.696Z,15.70
2022-10-18T06:44:24.807Z,15.70
2022-10-18T06:46:53.497Z,15.70
2022-10-18T06:49:20.669Z,15.70
2022-10-18T06:51:47.623Z,15.70
2022-10-18T06:54:19.103Z,15.70
2022-10-18T06:56:46.739Z,15.70
2022-10-18T06:59:13.942Z,15.70
2022-10-18T07:01:40.903Z,15.70
2022-10-18T07:04:07.942Z,15.80
2022-10-18T07:06:34.914Z,15.70
2022-10-18T07:09:03.164Z,15.70
2022-10-18T07:11:30.154Z,15.80
2022-10-18T07:14:04.819Z,15.80
2022-10-18T07:16:33.240Z,15.80
2022-10-18T07:19:00.250Z,15.80
2022-10-18T07:21:27.689Z,15.80
2022-10-18T07:23:54.957Z,15.80
2022-10-18T07:26:29.924Z,15.80
2022-10-18T07:29:01.545Z,15.80
2022-10-18T07:31:29.441Z,15.80
2022-10-18T07:33:57.534Z,15.90
2022-10-18T07:36:25.671Z,15.80
2022-10-18T07:38:52.978Z,15.90
2022-10-18T07:41:20.660Z,15.90
2022-10-18T07:43:51.070Z,15.90
2022-10-18T07:46:19.591Z,15.90
2022-10-18T07:48:46.601Z,15.90
2022-10-18T07:51:14.072Z,15.90
2022-10-18T07:53:41.292Z,15.90
2022-10-18T07:56:17.344Z,15.90
2022-10-18T07:58:45.392Z,15.90
2022-10-18T08:01:13.839Z,15.90
2022-10-18T08:03:41.857Z,16.00
2022-10-18T08:06:11.077Z,16.00
2022-10-18T08:08:39.704Z,16.00
2022-10-18T08:11:10.414Z,16.00
2022-10-18T08:13:37.375Z,16.00
2022-10-18T08:16:10.000Z,16.00
2022-10-18T08:18:37.655Z,16.00
2022-10-18T08:21:06.780Z,16.00
2022-10-18T08:23:34.207Z,16.00
2022-10-18T08:26:02.900Z,16.00
2022-10-18T08:28:30.012Z,16.00
2022-10-18T08:30:57.164Z,16.00
2022-10-18T08:33:24.124Z,16.00
2022-10-18T08:36:02.172Z,16.00
2022-10-18T08:38:33.471Z,16.10
2022-10-18T08:41:51.908Z,16.10
2022-10-18T08:44:42.060Z,16.10
2022-10-18T08:47:19.682Z,16.10
2022-10-18T08:49:49.723Z,16.10
2022-10-18T08:52:37.208Z,16.10
2022-10-18T08:55:16.040Z,16.20
2022-10-18T08:57:43.644Z,16.20
2022-10-18T09:00:19.050Z,16.20
2022-10-18T09:02:57.770Z,16.30
2022-10-18T09:05:24.687Z,16.30
2022-10-18T09:08:24.246Z,16.30
2022-10-18T09:11:12.056Z,16.40
2022-10-18T09:14:03.564Z,16.40
2022-10-18T09:16:35.987Z,16.40
2022-10-18T09:19:33.630Z,16.40
2022-10-18T09:22:14.537Z,16.40
2022-10-18T09:24:52.623Z,16.40
2022-10-18T09:27:22.340Z,16.40
2022-10-18T09:30:04.053Z,16.40
2022-10-18T09:32:34.261Z,16.50
2022-10-18T09:35:23.864Z,16.50
2022-10-18T09:37:55.771Z,16.50
2022-10-18T09:40:29.127Z,16.60
2022-10-18T09:43:13.042Z,16.60
2022-10-18T09:45:43.084Z,16.70
2022-10-18T09:48:21.983Z,16.80
2022-10-18T09:51:12.214Z,16.90
2022-10-18T09:53:59.379Z,16.90
2022-10-18T09:56:41.777Z,17.10
2022-10-18T09:59:29.338Z,17.10
2022-10-18T10:01:56.525Z,17.30
2022-10-18T10:04:23.607Z,17.30
2022-10-18T10:06:52.960Z,17.40
2022-10-18T10:09:27.143Z,17.40
2022-10-18T10:11:55.548Z,17.50
2022-10-18T10:14:26.648Z,17.50
2022-10-18T10:17:02.526Z,17.60
2022-10-18T10:19:34.775Z,17.60
2022-10-18T10:22:08.949Z,17.70
2022-10-18T10:24:53.599Z,17.80
2022-10-18T10:27:28.959Z,17.80
2022-10-18T10:30:01.514Z,17.90
2022-10-18T10:32:44.432Z,17.90
2022-10-18T10:35:56.104Z,17.90
2022-10-18T10:38:25.217Z,17.90
2022-10-18T10:40:52.610Z,18.00
2022-10-18T10:43:39.745Z,18.00
2022-10-18T10:46:19.214Z,18.00
2022-10-18T10:49:08.434Z,18.10
2022-10-18T10:51:41.349Z,18.10
2022-10-18T10:54:15.138Z,18.20
2022-10-18T10:57:00.291Z,18.20
2022-10-18T10:59:31.850Z,18.20
2022-10-18T11:02:35.556Z,18.30
2022-10-18T11:05:25.529Z,18.40
2022-10-18T11:08:12.160Z,18.40
2022-10-18T11:10:56.176Z,18.40
2022-10-18T11:13:28.707Z,18.50
2022-10-18T11:16:04.759Z,18.50
2022-10-18T11:18:37.346Z,18.60
2022-10-18T11:21:33.956Z,18.60
2022-10-18T11:24:03.002Z,18.60
2022-10-18T11:27:07.787Z,18.60
2022-10-18T11:29:59.253Z,18.60
2022-10-18T11:32:41.671Z,18.60
2022-10-18T11:35:27.208Z,18.70
2022-10-18T11:38:18.806Z,18.80
2022-10-18T11:40:52.466Z,18.80
2022-10-18T11:44:01.289Z,18.90
2022-10-18T11:46:42.581Z,19.10
2022-10-18T11:49:21.802Z,19.20
2022-10-18T11:52:08.465Z,19.30
2022-10-18T11:54:51.618Z,19.40
2022-10-18T11:57:50.696Z,19.50
2022-10-18T12:00:28.891Z,19.60
2022-10-18T12:03:14.265Z,19.80
2022-10-18T12:05:45.750Z,19.90
2022-10-18T12:08:18.388Z,20.00
2022-10-18T12:11:04.540Z,20.10
2022-10-18T12:13:37.389Z,20.20
2022-10-18T12:16:07.005Z,20.30
2022-10-18T12:18:36.156Z,20.40
2022-10-18T12:21:05.320Z,20.50
2022-10-18T12:23:36.733Z,20.50
2022-10-18T12:26:06.739Z,20.60
2022-10-18T12:29:02.434Z,20.70
2022-10-18T12:31:39.144Z,20.80
2022-10-18T12:34:33.717Z,20.80
2022-10-18T12:37:22.291Z,20.80
2022-10-18T12:40:15.668Z,20.80
2022-10-18T12:42:48.548Z,20.80
2022-10-18T12:45:33.134Z,20.80
2022-10-18T12:48:06.848Z,20.80
2022-10-18T12:50:34.996Z,20.80
2022-10-18T12:53:03.379Z,20.90
2022-10-18T12:55:54.068Z,20.90
2022-10-18T12:58:23.497Z,20.90
2022-10-18T13:00:50.523Z,21.00
2022-10-18T13:03:18.032Z,21.20
2022-10-18T13:05:55.862Z,21.30
2022-10-18T13:08:35.170Z,21.30
2022-10-18T13:11:02.083Z,21.40
2022-10-18T13:13:51.099Z,21.40
2022-10-18T13:16:22.196Z,21.40
2022-10-18T13:18:59.869Z,21.30
2022-10-18T13:21:58.985Z,21.30
2022-10-18T13:25:06.837Z,21.30
2022-10-18T13:27:53.146Z,21.20
2022-10-18T13:30:48.112Z,21.20
2022-10-18T13:33:40.433Z,21.10
2022-10-18T13:36:24.952Z,21.10
2022-10-18T13:38:57.809Z,21.20
2022-10-18T13:41:32.698Z,21.10
2022-10-18T13:44:24.467Z,21.20
2022-10-18T13:46:54.324Z,21.20
2022-10-18T13:49:39.187Z,21.20
2022-10-18T13:52:21.144Z,21.20
2022-10-18T13:55:24.643Z,21.30
2022-10-18T13:58:11.179Z,21.30
2022-10-18T14:00:56.372Z,21.30
2022-10-18T14:04:14.425Z,21.30
2022-10-18T14:06:44.300Z,21.30
2022-10-18T14:09:40.286Z,21.40
2022-10-18T14:12:16.811Z,21.40
2022-10-18T14:14:47.935Z,21.40
2022-10-18T14:17:52.884Z,21.40
2022-10-18T14:20:30.582Z,21.50
2022-10-18T14:23:09.476Z,21.50
2022-10-18T14:25:38.203Z,21.50
2022-10-18T14:28:13.171Z,21.60
2022-10-18T14:30:58.106Z,21.60
2022-10-18T14:33:36.917Z,21.60
2022-10-18T14:36:39.946Z,21.60
2022-10-18T14:39:16.510Z,21.60
2022-10-18T14:41:54.626Z,21.60
2022-10-18T14:44:29.098Z,21.60
2022-10-18T14:46:59.062Z,21.60
2022-10-18T14:49:26.637Z,21.60
2022-10-18T14:51:56.687Z,21.60
2022-10-18T14:54:31.571Z,21.50
2022-10-18T14:57:03.326Z,21.50
2022-10-18T14:59:34.807Z,21.50
2022-10-18T15:02:07.743Z,21.50
2022-10-18T15:04:34.789Z,21.40
2022-10-18T15:07:07.316Z,21.40
2022-10-18T15:09:36.364Z,21.40
2022-10-18T15:12:06.571Z,21.40
2022-10-18T15:14:34.811Z,21.40
2022-10-18T15:17:22.327Z,21.30
2022-10-18T15:19:59.329Z,21.30
2022-10-18T15:22:32.371Z,21.20
2022-10-18T15:25:06.015Z,21.10
2022-10-18T15:27:36.795Z,21.10
2022-10-18T15:30:29.299Z,21.00
2022-10-18T15:32:59.828Z,20.90
2022-10-18T15:35:28.921Z,20.90
2022-10-18T15:38:04.336Z,20.80
2022-10-18T15:40:35.032Z,20.70
2022-10-18T15:43:28.482Z,20.60
2022-10-18T15:46:05.048Z,20.50
2022-10-18T15:48:35.683Z,20.40
2022-10-18T15:51:05.349Z,20.30
2022-10-18T15:53:52.823Z,20.20
2022-10-18T15:56:35.419Z,20.10
2022-10-18T15:59:06.171Z,20.10
2022-10-18T16:01:35.824Z,19.90
2022-10-18T16:04:09.175Z,19.90
2022-10-18T16:06:38.615Z,19.90
2022-10-18T16:09:06.008Z,19.80
2022-10-18T16:11:33.075Z,19.80
2022-10-18T16:14:00.662Z,19.70
2022-10-18T16:16:29.256Z,19.60
2022-10-18T16:18:56.691Z,19.60
2022-10-18T16:21:28.656Z,19.50
2022-10-18T16:23:56.068Z,19.50
2022-10-18T16:26:24.334Z,19.40
2022-10-18T16:28:51.614Z,19.40
2022-10-18T16:31:21.237Z,19.30
2022-10-18T16:33:49.894Z,19.20
2022-10-18T16:36:23.802Z,19.20
2022-10-18T16:38:51.579Z,19.10
2022-10-18T16:41:18.755Z,19.10
2022-10-18T16:43:47.453Z,19.00
2022-10-18T16:46:20.804Z,18.90
2022-10-18T16:48:49.258Z,18.90
2022-10-18T16:51:16.922Z,18.90
2022-10-18T16:53:44.300Z,18.80
2022-10-18T16:56:30.468Z,18.70
2022-10-18T16:58:58.381Z,18.60
2022-10-18T17:01:26.446Z,18.60
2022-10-18T17:03:54.143Z,18.50
2022-10-18T17:06:24.271Z,18.40
2022-10-18T17:08:52.333Z,18.40
2022-10-18T17:11:20.728Z,18.40
2022-10-18T17:13:48.018Z,18.30
2022-10-18T17:16:30.278Z,18.30
2022-10-18T17:18:59.691Z,18.20
2022-10-18T17:21:29.297Z,18.10
2022-10-18T17:24:00.615Z,18.10
2022-10-18T17:26:29.235Z,18.00
2022-10-18T17:29:00.205Z,17.90
2022-10-18T17:31:28.550Z,17.90
2022-10-18T17:33:55.621Z,17.90
2022-10-18T17:36:23.057Z,17.80
2022-10-18T17:38:51.735Z,17.70
2022-10-18T17:41:19.018Z,17.60
2022-10-18T17:43:46.035Z,17.60
2022-10-18T17:46:14.338Z,17.60
2022-10-18T17:48:42.298Z,17.50
2022-10-18T17:51:11.594Z,17.50
2022-10-18T17:53:39.230Z,17.40
2022-10-18T17:56:07.842Z,17.40
2022-10-18T17:58:34.936Z,17.30
2022-10-18T18:01:11.842Z,17.20
2022-10-18T18:03:38.939Z,17.20
2022-10-18T18:06:17.562Z,17.10
2022-10-18T18:08:45.347Z,17.00
2022-10-18T18:11:12.390Z,16.90
2022-10-18T18:13:39.604Z,16.90
2022-10-18T18:16:16.310Z,16.90
2022-10-18T18:18:43.664Z,16.90
2022-10-18T18:21:11.225Z,16.80
2022-10-18T18:23:38.720Z,16.80
2022-10-18T18:26:06.354Z,16.80
2022-10-18T18:28:34.843Z,16.70
2022-10-18T18:31:14.070Z,16.70
2022-10-18T18:33:41.703Z,16.70
2022-10-18T18:36:09.533Z,16.60
2022-10-18T18:38:38.867Z,16.60
2022-10-18T18:41:07.464Z,16.60
2022-10-18T18:43:35.248Z,16.50
2022-10-18T18:46:02.668Z,16.50
2022-10-18T18:48:32.202Z,16.50
2022-10-18T18:50:59.389Z,16.40
2022-10-18T18:53:29.507Z,16.40
2022-10-18T18:56:10.784Z,16.40
2022-10-18T18:58:39.359Z,16.40
2022-10-18T19:01:22.113Z,16.40
2022-10-18T19:03:52.019Z,16.40
2022-10-18T19:06:31.049Z,16.40
2022-10-18T19:09:04.082Z,16.40
2022-10-18T19:11:37.840Z,16.30
2022-10-18T19:14:07.118Z,16.30
2022-10-18T19:16:38.585Z,16.30
2022-10-18T19:19:12.654Z,16.30
2022-10-18T19:21:42.834Z,16.20
2022-10-18T19:24:10.016Z,16.20
2022-10-18T19:26:45.372Z,16.20
2022-10-18T19:29:15.043Z,16.20
2022-10-18T19:31:42.420Z,16.20
2022-10-18T19:34:11.931Z,16.10
2022-10-18T19:36:41.020Z,16.10
2022-10-18T19:39:10.006Z,16.10
2022-10-18T19:41:37.028Z,16.00
2022-10-18T19:44:04.022Z,16.00
2022-10-18T19:46:30.981Z,16.00
2022-10-18T19:48:58.687Z,16.00
2022-10-18T19:51:28.347Z,15.90
2022-10-18T19:53:56.684Z,15.90
2022-10-18T19:56:25.637Z,15.90
2022-10-18T19:58:53.273Z,15.90
2022-10-18T20:01:20.260Z,15.90
2022-10-18T20:03:47.926Z,15.90
2022-10-18T20:06:15.535Z,15.90
2022-10-18T20:11:21.044Z,15.90
2022-10-18T20:13:48.474Z,15.80
2022-10-18T20:16:17.398Z,15.80
2022-10-18T20:18:44.659Z,15.80
2022-10-18T20:21:13.909Z,15.80
2022-10-18T20:23:42.802Z,15.80
2022-10-18T20:26:18.089Z,15.70
2022-10-18T20:28:49.117Z,15.70
2022-10-18T20:31:19.695Z,15.70
2022-10-18T20:33:48.101Z,15.60
2022-10-18T20:36:17.336Z,15.60
2022-10-18T20:38:46.349Z,15.60
2022-10-18T20:41:14.656Z,15.60
2022-10-18T20:43:41.997Z,15.60
2022-10-18T20:46:09.934Z,15.60
2022-10-18T20:48:38.758Z,15.60
2022-10-18T20:51:12.705Z,15.50
2022-10-18T20:53:40.394Z,15.50
2022-10-18T20:56:13.068Z,15.50
2022-10-18T20:58:41.879Z,15.50
2022-10-18T21:01:28.907Z,15.50
2022-10-18T21:03:57.870Z,15.50
2022-10-18T21:06:34.076Z,15.40
2022-10-18T21:09:07.278Z,15.40
2022-10-18T21:11:39.444Z,15.40
2022-10-18T21:14:07.875Z,15.40
2022-10-18T21:16:35.588Z,15.40
2022-10-18T21:19:08.146Z,15.40
2022-10-18T21:21:35.273Z,15.40
2022-10-18T21:24:05.467Z,15.30
2022-10-18T21:26:35.366Z,15.40
2022-10-18T21:29:03.650Z,15.40
2022-10-18T21:31:33.047Z,15.30
2022-10-18T21:34:02.837Z,15.30
2022-10-18T21:36:36.026Z,15.30
2022-10-18T21:39:04.502Z,15.30
2022-10-18T21:41:32.082Z,15.20
2022-10-18T21:43:59.147Z,15.30
2022-10-18T21:46:27.055Z,15.30
2022-10-18T21:48:55.564Z,15.20
2022-10-18T21:51:26.099Z,15.20
2022-10-18T21:53:55.755Z,15.20
2022-10-18T21:56:28.767Z,15.20
2022-10-18T21:58:56.702Z,15.20
2022-10-18T22:01:26.686Z,15.20
2022-10-18T22:03:56.539Z,15.10
2022-10-18T22:06:24.410Z,15.10
2022-10-18T22:08:56.151Z,15.10
2022-10-18T22:11:26.707Z,15.10
2022-10-18T22:13:54.142Z,15.10
2022-10-18T22:16:21.143Z,15.10
2022-10-18T22:18:48.938Z,15.00
2022-10-18T22:21:17.233Z,15.00
2022-10-18T22:23:46.963Z,15.00
2022-10-18T22:26:19.762Z,14.90
2022-10-18T22:28:46.877Z,14.90
2022-10-18T22:31:18.835Z,14.90
2022-10-18T22:33:46.696Z,14.90
2022-10-18T22:36:14.132Z,14.90
2022-10-18T22:38:41.087Z,14.90
2022-10-18T22:41:10.181Z,14.90
2022-10-18T22:43:37.577Z,14.90
2022-10-18T22:46:09.259Z,14.90
2022-10-18T22:48:36.744Z,14.90
2022-10-18T22:51:04.601Z,14.80
2022-10-18T22:53:32.540Z,14.80
2022-10-18T22:55:59.616Z,14.80
2022-10-18T22:58:26.909Z,14.80
2022-10-18T23:01:07.063Z,14.70
2022-10-18T23:03:34.795Z,14.70
2022-10-18T23:06:01.867Z,14.70
2022-10-18T23:08:29.323Z,14.70
2022-10-18T23:10:58.369Z,14.60
2022-10-18T23:13:26.711Z,14.70
2022-10-18T23:15:53.823Z,14.60
2022-10-18T23:18:20.767Z,14.60
2022-10-18T23:20:47.671Z,14.60
2022-10-18T23:23:14.635Z,14.60
2022-10-18T23:25:41.544Z,14.50
2022-10-18T23:28:08.493Z,14.50
2022-10-18T23:30:38.099Z,14.60
2022-10-18T23:33:05.055Z,14.50
2022-10-18T23:35:31.975Z,14.50
2022-10-18T23:37:58.943Z,14.50
2022-10-18T23:40:25.835Z,14.40
2022-10-18T23:42:52.799Z,14.50
2022-10-18T23:45:19.731Z,14.40
2022-10-18T23:47:46.678Z,14.50
2022-10-18T23:50:13.564Z,14.40
2022-10-18T23:52:40.525Z,14.40
2022-10-18T23:55:08.082Z,14.40
2022-10-18T23:57:35.317Z,14.40
